FW5796 Weather Reports


Display with metric or nautical units.
time (UTC)temp
F
wind
direction
speed
MPH
gust
MPH
rain 1hr
in
rain 24hr
in
rain mn
in
humidity
%
barometer
mb
20190919211737 89 216 14.0 23.0 0.00 0.00 0.00 9 1010.6
20190919211236 89 251 15.0 26.0 0.00 0.00 0.00 9 1010.8
20190919210734 89 217 15.0 26.0 0.00 0.00 0.00 8 1010.9
20190919210234 89 231 13.0 23.0 0.00 0.00 0.00 8 1010.9
20190919205733 89 176 14.0 26.0 0.00 0.00 0.00 9 1011.0
20190919205234 89 197 16.0 29.0 0.00 0.00 0.00 9 1011.0
20190919204734 89 228 15.0 29.0 0.00 0.00 0.00 9 1011.1
20190919204234 89 209 13.0 24.0 0.00 0.00 0.00 8 1011.1
20190919203734 90 206 12.0 22.0 0.00 0.00 0.00 9 1011.1
20190919203234 90 212 12.0 23.0 0.00 0.00 0.00 9 1011.2
20190919202734 89 187 11.0 23.0 0.00 0.00 0.00 9 1011.2
20190919202234 89 237 12.0 21.0 0.00 0.00 0.00 10 1011.2
20190919201732 89 184 11.0 21.0 0.00 0.00 0.00 9 1011.5
20190919201232 89 209 10.0 18.0 0.00 0.00 0.00 10 1011.4
20190919200732 89 114 11.0 18.0 0.00 0.00 0.00 9 1011.6
20190919200232 88 198 7.0 15.0 0.00 0.00 0.00 10 1011.7
20190919195731 88 184 7.0 16.0 0.00 0.00 0.00 11 1011.8
20190919195231 88 210 7.0 16.0 0.00 0.00 0.00 10 1012.0
20190919194732 88 216 9.0 19.0 0.00 0.00 0.00 12 1011.8
20190919194232 87 217 9.0 19.0 0.00 0.00 0.00 11 1012.1
20190919193732 88 235 8.0 19.0 0.00 0.00 0.00 11 1012.1
20190919193231 88 233 9.0 15.0 0.00 0.00 0.00 11 1012.3
20190919192730 87 149 11.0 20.0 0.00 0.00 0.00 11 1012.4
20190919192230 88 210 12.0 20.0 0.00 0.00 0.00 10 1012.6
20190919191729 87 219 13.0 24.0 0.00 0.00 0.00 11 1012.3
20190919191229 87 185 14.0 24.0 0.00 0.00 0.00 11 1012.4
20190919190730 87 207 11.0 21.0 0.00 0.00 0.00 10 1012.6
20190919190230 86 219 11.0 19.0 0.00 0.00 0.00 11 1012.6
20190919185729 86 165 12.0 23.0 0.00 0.00 0.00 11 1012.7
20190919185230 87 194 11.0 23.0 0.00 0.00 0.00 10 1012.6
20190919184730 86 192 10.0 18.0 0.00 0.00 0.00 11 1012.7
20190919184230 86 206 10.0 17.0 0.00 0.00 0.00 12 1012.7
20190919183727 85 219 13.0 26.0 0.00 0.00 0.00 11 1012.7
20190919183228 86 229 14.0 26.0 0.00 0.00 0.00 11 1012.8
20190919182728 86 209 12.0 25.0 0.00 0.00 0.00 11 1012.8
20190919182227 86 199 12.0 25.0 0.00 0.00 0.00 10 1012.9
20190919181728 86 203 12.0 23.0 0.00 0.00 0.00 9 1013.0
20190919181228 86 188 11.0 22.0 0.00 0.00 0.00 9 1013.0
20190919180728 86 185 13.0 22.0 0.00 0.00 0.00 9 1013.0
20190919180228 85 209 12.0 22.0 0.00 0.00 0.00 9 1013.1
20190919175728 86 196 12.0 21.0 0.00 0.00 0.00 8 1013.0
20190919175228 85 139 12.0 20.0 0.00 0.00 0.00 7 1013.1
20190919174728 85 146 10.0 18.0 0.00 0.00 0.00 7 1013.1
20190919174227 85 159 12.0 21.0 0.00 0.00 0.00 7 1013.2
20190919173728 85 203 13.0 21.0 0.00 0.00 0.00 8 1013.3
20190919173228 85 171 13.0 18.0 0.00 0.00 0.00 6 1013.3
20190919172727 85 173 13.0 21.0 0.00 0.00 0.00 5 1013.3
20190919172227 85 125 14.0 22.0 0.00 0.00 0.00 5 1013.1
20190919171728 85 146 16.0 22.0 0.00 0.00 0.00 5 1013.2
20190919171228 84 134 16.0 23.0 0.00 0.00 0.00 5 1013.1
20190919170727 84 146 15.0 23.0 0.00 0.00 0.00 5 1013.1
20190919170227 84 124 14.0 19.0 0.00 0.00 0.00 5 1013.2
20190919165728 84 139 14.0 20.0 0.00 0.00 0.00 5 1013.2
20190919165228 84 117 15.0 21.0 0.00 0.00 0.00 5 1013.2
20190919164728 84 151 16.0 23.0 0.00 0.00 0.00 5 1013.2
20190919164228 84 137 16.0 23.0 0.00 0.00 0.00 5 1013.3
20190919163727 83 126 16.0 20.0 0.00 0.00 0.00 5 1013.2
20190919163227 83 135 16.0 20.0 0.00 0.00 0.00 5 1013.3
20190919162733 83 133 16.0 21.0 0.00 0.00 0.00 5 1013.4
20190919162228 83 127 17.0 21.0 0.00 0.00 0.00 5 1013.4
20190919161727 82 126 16.0 22.0 0.00 0.00 0.00 6 1013.3
20190919161225 82 115 17.0 22.0 0.00 0.00 0.00 6 1013.3
20190919160726 82 125 17.0 23.0 0.00 0.00 0.00 7 1013.4
20190919160226 82 124 17.0 23.0 0.00 0.00 0.00 6 1013.3
20190919155725 82 110 16.0 21.0 0.00 0.00 0.00 7 1013.3
20190919155223 82 119 16.0 20.0 0.00 0.00 0.00 7 1013.2
20190919154724 82 142 14.0 20.0 0.00 0.00 0.00 7 1013.2
20190919154221 81 119 11.0 20.0 0.00 0.00 0.00 8 1013.2
20190919153722 81 146 11.0 17.0 0.00 0.00 0.00 8 1013.2
20190919153220 81 149 11.0 17.0 0.00 0.00 0.00 8 1013.3
20190919152719 80 166 9.0 13.0 0.00 0.00 0.00 8 1013.2
20190919152219 80 162 8.0 13.0 0.00 0.00 0.00 8 1013.2
20190919151717 79 138 5.0 10.0 0.00 0.00 0.00 7 1013.2
20190919151217 79 139 4.0 9.0 0.00 0.00 0.00 7 1013.2
20190919150719 78 183 4.0 7.0 0.00 0.00 0.00 7 1013.2
20190919150216 78 179 3.0 6.0 0.00 0.00 0.00 6 1013.2
20190919145715 78 200 4.0 5.0 0.00 0.00 0.00 7 1013.3
20190919145217 77 179 5.0 8.0 0.00 0.00 0.00 7 1013.2
20190919144715 77 214 4.0 8.0 0.00 0.00 0.00 7 1013.1
20190919144215 77 197 2.0 6.0 0.00 0.00 0.00 7 1013.1
20190919143714 76 154 2.0 4.0 0.00 0.00 0.00 7 1013.2
20190919143213 76 154 4.0 7.0 0.00 0.00 0.00 6 1013.1
20190919142713 76 126 6.0 8.0 0.00 0.00 0.00 6 1013.1
20190919142213 76 129 7.0 9.0 0.00 0.00 0.00 6 1013.1
20190919141713 75 129 7.0 9.0 0.00 0.00 0.00 6 1013.2
20190919141213 75 123 6.0 9.0 0.00 0.00 0.00 6 1013.2
20190919140714 75 129 7.0 10.0 0.00 0.00 0.00 6 1013.1
20190919140213 75 127 8.0 10.0 0.00 0.00 0.00 6 1013.1
20190919135713 75 111 9.0 11.0 0.00 0.00 0.00 6 1013.0
20190919135213 75 133 8.0 12.0 0.00 0.00 0.00 7 1013.0
20190919134713 74 119 7.0 12.0 0.00 0.00 0.00 7 1013.0
20190919134211 74 125 6.0 8.0 0.00 0.00 0.00 7 1013.0
20190919133711 74 135 5.0 7.0 0.00 0.00 0.00 7 1012.9
20190919133211 74 148 4.0 7.0 0.00 0.00 0.00 7 1013.0
20190919132711 73 155 4.0 7.0 0.00 0.00 0.00 7 1012.9
20190919132211 74 178 4.0 7.0 0.00 0.00 0.00 7 1012.9
20190919131711 74 196 5.0 8.0 0.00 0.00 0.00 6 1012.9
20190919131211 75 187 5.0 9.0 0.00 0.00 0.00 6 1012.8
20190919130711 76 188 7.0 14.0 0.00 0.00 0.00 7 1012.7
20190919130211 77 182 9.0 15.0 0.00 0.00 0.00 6 1012.7
20190919125710 77 144 10.0 15.0 0.00 0.00 0.00 6 1012.4
20190919125209 77 151 9.0 14.0 0.00 0.00 0.00 6 1012.3
20190919124711 75 127 6.0 14.0 0.00 0.00 0.00 6 1012.2
20190919124209 75 188 5.0 7.0 0.00 0.00 0.00 6 1012.3
20190919123709 75 223 5.0 7.0 0.00 0.00 0.00 5 1012.3
20190919123209 75 213 3.0 7.0 0.00 0.00 0.00 5 1012.3
20190919122709 76 184 2.0 5.0 0.00 0.00 0.00 5 1012.2
20190919122209 77 152 3.0 9.0 0.00 0.00 0.00 5 1012.2
20190919121709 78 161 6.0 11.0 0.00 0.00 0.00 5 1012.1
20190919121209 78 137 8.0 12.0 0.00 0.00 0.00 5 1012.1
20190919120708 78 110 8.0 14.0 0.00 0.00 0.00 5 1012.1
20190919120207 79 89 10.0 14.0 0.00 0.00 0.00 5 1012.0
20190919115707 79 110 10.0 14.0 0.00 0.00 0.00 5 1012.0
20190919115207 79 92 11.0 15.0 0.00 0.00 0.00 5 1011.9
20190919114707 79 109 11.0 16.0 0.00 0.00 0.00 4 1011.9
20190919114206 79 109 11.0 16.0 0.00 0.00 0.00 4 1011.9
20190919113707 79 138 12.0 17.0 0.00 0.00 0.00 4 1011.9
20190919113207 79 104 12.0 17.0 0.00 0.00 0.00 4 1011.9
20190919112707 79 106 12.0 14.0 0.00 0.00 0.00 4 1012.0
20190919112207 79 110 12.0 15.0 0.00 0.00 0.00 4 1012.0
20190919111708 79 100 13.0 17.0 0.00 0.00 0.00 4 1011.9
20190919111206 79 106 12.0 17.0 0.00 0.00 0.00 4 1011.9
20190919110705 80 106 12.0 16.0 0.00 0.00 0.00 4 1012.0
20190919110205 80 108 14.0 18.0 0.00 0.00 0.00 4 1012.0
20190919105705 79 98 14.0 18.0 0.00 0.00 0.00 4 1012.0
20190919105205 79 100 13.0 18.0 0.00 0.00 0.00 3 1012.0
20190919104705 79 111 12.0 16.0 0.00 0.00 0.00 3 1012.0
20190919104205 79 106 11.0 16.0 0.00 0.00 0.00 3 1012.0
20190919103704 79 104 11.0 14.0 0.00 0.00 0.00 3 1012.0
20190919103205 80 109 12.0 15.0 0.00 0.00 0.00 3 1012.0
20190919102705 80 100 12.0 15.0 0.00 0.00 0.00 3 1012.1
20190919102203 80 105 13.0 17.0 0.00 0.00 0.00 3 1012.1
20190919101703 80 92 13.0 17.0 0.00 0.00 0.00 3 1012.1
20190919101202 79 103 13.0 17.0 0.00 0.00 0.00 3 1012.1
20190919100702 79 96 12.0 16.0 0.00 0.00 0.00 3 1012.1
20190919100203 79 99 12.0 15.0 0.00 0.00 0.00 4 1012.2
20190919095702 79 99 12.0 16.0 0.00 0.00 0.00 3 1012.3
20190919095203 78 96 11.0 16.0 0.00 0.00 0.00 3 1012.4
20190919094703 78 98 10.0 15.0 0.00 0.00 0.00 3 1012.4
20190919094203 76 94 9.0 12.0 0.00 0.00 0.00 4 1012.4
20190919093703 75 90 9.0 12.0 0.00 0.00 0.00 4 1012.4
20190919093200 75 85 10.0 12.0 0.00 0.00 0.00 4 1012.6
20190919092700 76 79 11.0 14.0 0.00 0.00 0.00 4 1012.6
20190919092201 76 81 10.0 14.0 0.00 0.00 0.00 4 1012.6
20190919091201 76 73 10.0 13.0 0.00 0.00 0.00 4 1012.7
20190919090701 76 85 10.0 13.0 0.00 0.00 0.00 4 1012.6
20190919090200 76 77 10.0 13.0 0.00 0.00 0.00 4 1012.7
20190919085700 78 90 10.0 13.0 0.00 0.00 0.00 3 1012.8
20190919085201 77 103 8.0 12.0 0.00 0.00 0.00 3 1012.8
20190919084701 76 91 7.0 10.0 0.00 0.00 0.00 4 1012.9
20190919084201 75 88 8.0 12.0 0.00 0.00 0.00 4 1012.9
20190919083701 76 85 10.0 13.0 0.00 0.00 0.00 3 1012.9
20190919083200 76 70 10.0 13.0 0.00 0.00 0.00 3 1012.9
20190919082658 76 82 10.0 12.0 0.00 0.00 0.00 3 1012.9
20190919082159 77 85 10.0 13.0 0.00 0.00 0.00 3 1012.9
20190919081733 78 85 11.0 15.0 0.00 0.00 0.00 2 1012.8
20190919081159 79 96 12.0 15.0 0.00 0.00 0.00 2 1012.9
20190919080659 80 94 12.0 15.0 0.00 0.00 0.00 2 1012.9
20190919080158 79 99 12.0 15.0 0.00 0.00 0.00 2 1012.9
20190919075659 79 90 13.0 16.0 0.00 0.00 0.00 1 1012.8
20190919075159 79 94 13.0 16.0 0.00 0.00 0.00 1 1012.8
20190919074658 79 96 11.0 15.0 0.00 0.00 0.00 1 1012.8
20190919074158 79 101 11.0 16.0 0.00 0.00 0.00 1 1012.8
20190919073659 79 93 12.0 16.0 0.00 0.00 0.00 1 1012.8
20190919073158 81 82 12.0 16.0 0.00 0.00 0.00 1 1013.0
20190919072659 81 96 10.0 16.0 0.00 0.00 0.00 1 1012.8
20190919072158 80 110 10.0 15.0 0.00 0.00 0.00 1 1012.9
20190919071658 77 90 8.0 13.0 0.00 0.00 0.00 1 1013.0
20190919071159 76 93 9.0 13.0 0.00 0.00 0.00 1 1012.9
20190919070658 76 79 11.0 13.0 0.00 0.00 0.00 1 1013.0
20190919070159 77 67 9.0 13.0 0.00 0.00 0.00 1 1013.0
20190919065658 76 80 10.0 15.0 0.00 0.00 0.00 1 1013.1
20190919065159 76 84 11.0 15.0 0.00 0.00 0.00 1 1013.1
20190919064701 76 83 10.0 15.0 0.00 0.00 0.00 1 1013.1
20190919064159 76 89 12.0 15.0 0.00 0.00 0.00 1 1013.0
20190919063658 76 83 12.0 15.0 0.00 0.00 0.00 1 1013.0
20190919063159 76 85 10.0 14.0 0.00 0.00 0.00 1 1013.1
20190919062659 76 93 10.0 12.0 0.00 0.00 0.00 1 1013.1
20190919062159 77 89 10.0 17.0 0.00 0.00 0.00 1 1013.1
20190919061657 78 94 11.0 17.0 0.00 0.00 0.00 1 1013.1
20190919061156 79 82 12.0 17.0 0.00 0.00 0.00 1 1013.1
20190919060657 80 100 13.0 17.0 0.00 0.00 0.00 1 1013.2
20190919060158 80 98 13.0 16.0 0.00 0.00 0.00 1 1013.2
20190919055657 80 97 13.0 15.0 0.00 0.00 0.00 1 1013.2
20190919055157 80 96 12.0 15.0 0.00 0.00 0.00 1 1013.1
20190919054657 80 96 13.0 15.0 0.00 0.00 0.00 1 1013.1
20190919054157 80 97 13.0 15.0 0.00 0.00 0.00 1 1013.2
20190919053657 80 102 13.0 16.0 0.00 0.00 0.00 1 1013.1
20190919053157 80 100 13.0 17.0 0.00 0.00 0.00 1 1013.2
20190919052654 80 97 13.0 17.0 0.00 0.00 0.00 1 1013.2
20190919052155 81 94 13.0 16.0 0.00 0.00 0.00 1 1013.2
20190919051654 81 96 13.0 17.0 0.00 0.00 0.00 1 1013.2
20190919051154 80 100 13.0 17.0 0.00 0.00 0.00 1 1013.1
20190919050655 80 100 12.0 17.0 0.00 0.00 0.00 1 1013.1
20190919050155 80 102 12.0 17.0 0.00 0.00 0.00 1 1013.1
20190919045655 81 110 12.0 16.0 0.00 0.00 0.00 1 1013.1
20190919045155 80 96 12.0 16.0 0.00 0.00 0.00 2 1013.1
20190919044654 81 102 12.0 16.0 0.00 0.00 0.00 3 1013.0
20190919044154 81 105 11.0 15.0 0.00 0.00 0.00 4 1013.0
20190919043655 81 86 10.0 15.0 0.00 0.00 0.00 5 1013.0
20190919043154 81 104 11.0 13.0 0.00 0.00 0.00 5 1013.1
20190919042655 81 93 11.0 13.0 0.00 0.00 0.00 5 1012.9
20190919042155 82 96 11.0 13.0 0.00 0.00 0.00 4 1013.0
20190919041655 82 112 10.0 15.0 0.00 0.00 0.00 4 1012.9
20190919041155 80 105 8.0 15.0 0.00 0.00 0.00 5 1012.9
20190919040655 79 90 9.0 12.0 0.00 0.00 0.00 5 1012.9
20190919040154 79 79 10.0 12.0 0.00 0.00 0.00 5 1013.0
20190919035655 80 83 10.0 12.0 0.00 0.00 0.00 5 1012.9
20190919035155 80 87 10.0 13.0 0.00 0.00 0.00 5 1012.9
20190919034654 81 84 11.0 14.0 0.00 0.00 0.00 4 1013.0
20190919034154 81 86 11.0 14.0 0.00 0.00 0.00 4 1012.8
20190919033654 80 90 10.0 13.0 0.00 0.00 0.00 4 1013.0
20190919033152 80 81 10.0 13.0 0.00 0.00 0.00 4 1012.9
20190919032653 80 79 10.0 12.0 0.00 0.00 0.00 4 1012.9
20190919032153 80 81 10.0 13.0 0.00 0.00 0.00 4 1013.0
20190919031652 80 83 10.0 13.0 0.00 0.00 0.00 4 1012.9
20190919031153 81 73 10.0 13.0 0.00 0.00 0.00 4 1012.9
20190919030653 81 81 10.0 13.0 0.00 0.00 0.00 4 1012.9
20190919030152 81 81 10.0 13.0 0.00 0.00 0.00 4 1012.9
20190919025653 81 81 10.0 14.0 0.00 0.00 0.00 3 1013.0
20190919025153 81 70 9.0 14.0 0.00 0.00 0.00 3 1012.9
20190919024651 81 72 8.0 12.0 0.00 0.00 0.00 2 1012.9
20190919024152 83 73 7.0 10.0 0.00 0.00 0.00 1 1012.9
20190919023653 83 90 8.0 10.0 0.00 0.00 0.00 1 1012.8
20190919023151 84 97 8.0 11.0 0.00 0.00 0.00 1 1012.9
20190919022651 83 99 7.0 11.0 0.00 0.00 0.00 1 1012.8
20190919022151 83 92 7.0 10.0 0.00 0.00 0.00 1 1012.8
20190919021650 83 84 7.0 9.0 0.00 0.00 0.00 1 1012.7
20190919021152 83 90 6.0 9.0 0.00 0.00 0.00 1 1012.7
20190919020651 85 93 5.0 8.0 0.00 0.00 0.00 1 1012.7
20190919020150 86 102 5.0 8.0 0.00 0.00 0.00 1 1012.6
20190919015649 87 112 5.0 8.0 0.00 0.00 0.00 1 1012.7
20190919015149 87 124 4.0 7.0 0.00 0.00 0.00 1 1012.6
20190919014648 88 144 4.0 7.0 0.00 0.00 0.00 2 1012.6
20190919014148 88 146 5.0 8.0 0.00 0.00 0.00 2 1012.7
20190919013649 88 146 5.0 8.0 0.00 0.00 0.00 3 1012.7
20190919013149 88 164 5.0 8.0 0.00 0.00 0.00 2 1012.7
20190919012648 89 183 7.0 10.0 0.00 0.00 0.00 2 1012.7
20190919012149 89 200 8.0 11.0 0.00 0.00 0.00 2 1012.7
20190919011648 90 185 8.0 15.0 0.00 0.00 0.00 2 1012.7
20190919011147 90 197 9.0 15.0 0.00 0.00 0.00 1 1012.6
20190919010647 91 183 10.0 16.0 0.00 0.00 0.00 1 1012.8
20190919010146 91 175 11.0 16.0 0.00 0.00 0.00 1 1012.9
20190919005646 91 166 11.0 17.0 0.00 0.00 0.00 1 1012.9
20190919005147 91 198 10.0 17.0 0.00 0.00 0.00 2 1012.9
20190919004646 91 184 10.0 17.0 0.00 0.00 0.00 2 1013.0
20190919004146 92 194 11.0 17.0 0.00 0.00 0.00 2 1012.9
20190919003650 92 197 11.0 18.0 0.00 0.00 0.00 2 1013.0
20190919003146 92 189 11.0 18.0 0.00 0.00 0.00 1 1013.0
20190919002646 92 171 11.0 18.0 0.00 0.00 0.00 1 1013.0
20190919002145 92 200 11.0 18.0 0.00 0.00 0.00 1 1013.1
20190919001644 92 173 11.0 18.0 0.00 0.00 0.00 1 1013.0
20190919001144 92 194 12.0 18.0 0.00 0.00 0.00 1 1013.0
20190919000645 92 195 13.0 21.0 0.00 0.00 0.00 1 1013.1
20190919000145 92 175 12.0 21.0 0.00 0.00 0.00 1 1013.1
20190918235644 92 137 12.0 18.0 0.00 0.00 0.00 1 1013.1
20190918235144 92 186 13.0 22.0 0.00 0.00 0.00 1 1013.0
20190918234644 92 181 11.0 22.0 0.00 0.00 0.00 1 1013.1
20190918234144 92 207 11.0 18.0 0.00 0.00 0.00 1 1013.1
20190918233649 92 158 13.0 21.0 0.00 0.00 0.00 1 1013.2
20190918233144 92 146 14.0 21.0 0.00 0.00 0.00 1 1013.1
20190918232643 92 138 11.0 19.0 0.00 0.00 0.00 1 1013.1
20190918232142 92 207 11.0 19.0 0.00 0.00 0.00 1 1013.2
20190918231642 92 174 14.0 25.0 0.00 0.00 0.00 2 1013.2
20190918231142 92 152 12.0 25.0 0.00 0.00 0.00 1 1013.3
20190918230642 93 146 13.0 22.0 0.00 0.00 0.00 1 1013.3
20190918230142 92 221 15.0 22.0 0.00 0.00 0.00 1 1013.4
20190918225642 92 173 14.0 22.0 0.00 0.00 0.00 2 1013.4
20190918225142 92 177 14.0 21.0 0.00 0.00 0.00 1 1013.3
20190918224642 92 196 14.0 26.0 0.00 0.00 0.00 1 1013.4
20190918224141 93 167 15.0 26.0 0.00 0.00 0.00 2 1013.4
20190918223640 93 194 14.0 21.0 0.00 0.00 0.00 2 1013.4
20190918223140 93 155 13.0 21.0 0.00 0.00 0.00 2 1013.5
20190918222640 93 185 13.0 20.0 0.00 0.00 0.00 3 1013.5
20190918222139 93 196 14.0 21.0 0.00 0.00 0.00 3 1013.5
20190918221640 93 147 14.0 21.0 0.00 0.00 0.00 3 1013.5
20190918221140 93 191 13.0 20.0 0.00 0.00 0.00 3 1013.6
20190918220640 93 168 14.0 20.0 0.00 0.00 0.00 3 1013.6
20190918220141 93 188 15.0 26.0 0.00 0.00 0.00 3 1013.7
20190918215640 93 199 15.0 26.0 0.00 0.00 0.00 3 1013.7
20190918215142 93 191 13.0 24.0 0.00 0.00 0.00 3 1013.8
20190918214638 92 163 13.0 26.0 0.00 0.00 0.00 3 1013.8
20190918214139 92 187 13.0 26.0 0.00 0.00 0.00 3 1014.0
20190918213638 92 208 14.0 26.0 0.00 0.00 0.00 4 1014.0
20190918213140 92 181 16.0 26.0 0.00 0.00 0.00 4 1014.1
20190918212638 92 175 15.0 28.0 0.00 0.00 0.00 4 1014.0
20190918212138 92 187 15.0 28.0 0.00 0.00 0.00 3 1014.1